createdAt,value
2022-10-01T00:02:01.504Z,11.30
2022-10-01T00:04:28.345Z,11.45
2022-10-01T00:06:55.130Z,11.77
2022-10-01T00:09:21.749Z,11.00
2022-10-01T00:11:48.355Z,10.93
2022-10-01T00:14:15.030Z,11.02
2022-10-01T00:16:41.731Z,12.32
2022-10-01T00:19:12.399Z,12.43
2022-10-01T00:21:39.052Z,10.45
2022-10-01T00:24:07.010Z,10.80
2022-10-01T00:26:35.870Z,12.15
2022-10-01T00:29:05.887Z,11.30
2022-10-01T00:31:33.367Z,12.35
2022-10-01T00:34:03.247Z,11.88
2022-10-01T00:36:30.763Z,10.80
2022-10-01T00:39:00.417Z,11.32
2022-10-01T00:41:29.214Z,11.23
2022-10-01T00:43:59.016Z,11.10
2022-10-01T00:46:45.126Z,12.35
2022-10-01T00:49:17.686Z,12.10
2022-10-01T00:51:50.763Z,12.00
2022-10-01T00:54:25.281Z,11.50
2022-10-01T00:56:54.106Z,10.70
2022-10-01T00:59:21.097Z,12.18
2022-10-01T01:01:48.734Z,12.60
2022-10-01T01:04:18.477Z,12.98
2022-10-01T01:06:57.625Z,10.90
2022-10-01T01:09:30.909Z,12.45
2022-10-01T01:12:16.295Z,11.82
2022-10-01T01:15:07.471Z,11.30
2022-10-01T01:17:48.276Z,11.90
2022-10-01T01:20:29.957Z,12.23
2022-10-01T01:23:13.210Z,11.48
2022-10-01T01:25:47.466Z,12.80
2022-10-01T01:28:32.050Z,12.93
2022-10-01T01:31:08.143Z,12.60
2022-10-01T01:33:37.283Z,11.50
2022-10-01T01:36:15.651Z,12.95
2022-10-01T01:38:51.606Z,14.32
2022-10-01T01:41:20.839Z,12.48
2022-10-01T01:43:51.780Z,12.27
2022-10-01T01:46:20.793Z,13.82
2022-10-01T01:48:53.232Z,12.35
2022-10-01T01:51:35.969Z,13.00
2022-10-01T01:54:03.199Z,12.35
2022-10-01T01:56:31.124Z,12.85
2022-10-01T01:58:59.277Z,12.95
2022-10-01T02:01:41.176Z,12.77
2022-10-01T02:04:25.374Z,12.23
2022-10-01T02:07:16.165Z,12.93
2022-10-01T02:09:51.177Z,12.88
2022-10-01T02:12:35.518Z,11.82
2022-10-01T02:15:20.529Z,13.88
2022-10-01T02:17:59.481Z,12.77
2022-10-01T02:20:40.969Z,12.10
2022-10-01T02:23:13.433Z,12.27
2022-10-01T02:25:44.835Z,13.20
2022-10-01T02:28:16.328Z,11.98
2022-10-01T02:30:46.779Z,12.40
2022-10-01T02:33:17.014Z,12.88
2022-10-01T02:35:45.907Z,11.90
2022-10-01T02:38:15.430Z,11.90
2022-10-01T02:40:44.921Z,12.38
2022-10-01T02:43:17.523Z,12.60
2022-10-01T02:45:50.029Z,11.48
2022-10-01T02:48:18.068Z,11.52
2022-10-01T02:50:51.051Z,11.30
2022-10-01T02:53:25.386Z,11.75
2022-10-01T02:55:53.839Z,11.85
2022-10-01T02:58:20.989Z,11.85
2022-10-01T03:00:47.641Z,11.00
2022-10-01T03:03:14.263Z,12.32
2022-10-01T03:05:41.287Z,11.80
2022-10-01T03:08:08.238Z,10.30
2022-10-01T03:10:34.934Z,10.80
2022-10-01T03:13:01.843Z,10.63
2022-10-01T03:15:29.018Z,11.10
2022-10-01T03:17:55.768Z,10.98
2022-10-01T03:20:22.775Z,10.18
2022-10-01T03:22:49.715Z,11.32
2022-10-01T03:25:17.098Z,10.45
2022-10-01T03:27:44.025Z,10.40
2022-10-01T03:30:11.233Z,10.50
2022-10-01T03:32:38.010Z,10.68
2022-10-01T03:35:05.286Z,11.15
2022-10-01T03:37:31.933Z,10.75
2022-10-01T03:39:58.623Z,9.90
2022-10-01T03:42:25.225Z,11.55
2022-10-01T03:44:52.033Z,10.63
2022-10-01T03:47:18.664Z,10.23
2022-10-01T03:49:45.300Z,10.05
2022-10-01T03:52:11.937Z,9.85
2022-10-01T03:54:39.349Z,10.90
2022-10-01T03:57:06.747Z,9.73
2022-10-01T03:59:33.382Z,10.50
2022-10-01T04:02:00.138Z,9.95
2022-10-01T04:04:28.872Z,10.35
2022-10-01T04:06:55.810Z,10.00
2022-10-01T04:09:22.460Z,9.52
2022-10-01T04:11:49.344Z,10.00
2022-10-01T04:14:15.951Z,9.20
2022-10-01T04:16:43.392Z,9.75
2022-10-01T04:19:10.047Z,8.95
2022-10-01T04:21:37.331Z,9.55
2022-10-01T04:24:05.168Z,9.55
2022-10-01T04:26:31.825Z,9.77
2022-10-01T04:28:58.442Z,9.77
2022-10-01T04:31:25.202Z,10.20
2022-10-01T04:33:57.821Z,10.45
2022-10-01T04:36:25.666Z,10.20
2022-10-01T04:38:57.964Z,9.65
2022-10-01T04:41:26.044Z,9.07
2022-10-01T04:43:52.772Z,9.77
2022-10-01T04:46:19.485Z,8.80
2022-10-01T04:48:48.118Z,9.52
2022-10-01T04:51:15.639Z,9.13
2022-10-01T04:53:42.397Z,9.80
2022-10-01T04:56:09.021Z,10.27
2022-10-01T04:58:35.792Z,9.43
2022-10-01T05:01:02.644Z,9.85
2022-10-01T05:03:29.631Z,9.95
2022-10-01T05:05:56.323Z,9.68
2022-10-01T05:08:23.163Z,9.70
2022-10-01T05:10:49.838Z,9.75
2022-10-01T05:13:16.461Z,8.43
2022-10-01T05:15:43.199Z,9.23
2022-10-01T05:18:09.899Z,9.60
2022-10-01T05:20:37.762Z,9.80
2022-10-01T05:23:04.898Z,10.20
2022-10-01T05:25:31.659Z,9.63
2022-10-01T05:28:05.730Z,9.70
2022-10-01T05:30:33.526Z,9.30
2022-10-01T05:33:02.369Z,8.80
2022-10-01T05:35:29.827Z,10.23
2022-10-01T05:37:58.236Z,9.40
2022-10-01T05:40:27.343Z,9.45
2022-10-01T05:42:55.243Z,8.68
2022-10-01T05:45:22.927Z,9.25
2022-10-01T05:48:00.551Z,8.85
2022-10-01T05:50:31.195Z,9.80
2022-10-01T05:52:59.344Z,8.40
2022-10-01T05:55:26.566Z,8.82
2022-10-01T05:57:58.075Z,8.82
2022-10-01T06:00:28.022Z,9.20
2022-10-01T06:02:56.255Z,8.60
2022-10-01T06:05:23.553Z,8.35
2022-10-01T06:07:51.884Z,8.10
2022-10-01T06:10:18.714Z,8.65
2022-10-01T06:12:45.855Z,8.20
2022-10-01T06:15:13.550Z,9.38
2022-10-01T06:17:44.861Z,8.60
2022-10-01T06:20:13.614Z,8.48
2022-10-01T06:22:41.120Z,8.18
2022-10-01T06:25:08.294Z,8.70
2022-10-01T06:27:34.932Z,8.82
2022-10-01T06:30:01.729Z,8.60
2022-10-01T06:32:31.642Z,8.38
2022-10-01T06:35:01.343Z,8.35
2022-10-01T06:37:27.990Z,8.60
2022-10-01T06:39:55.549Z,8.38
2022-10-01T06:42:22.238Z,7.80
2022-10-01T06:44:48.883Z,7.80
2022-10-01T06:47:15.520Z,8.60
2022-10-01T06:49:44.550Z,8.27
2022-10-01T06:52:32.002Z,8.00
2022-10-01T06:55:00.084Z,7.95
2022-10-01T06:57:27.425Z,8.30
2022-10-01T06:59:54.138Z,8.00
2022-10-01T07:02:29.511Z,8.18
2022-10-01T07:04:59.600Z,7.85
2022-10-01T07:07:35.254Z,8.30
2022-10-01T07:10:04.196Z,7.82
2022-10-01T07:12:30.874Z,7.47
2022-10-01T07:14:57.528Z,7.55
2022-10-01T07:17:24.238Z,8.38
2022-10-01T07:19:51.025Z,8.27
2022-10-01T07:22:19.294Z,7.95
2022-10-01T07:24:46.444Z,8.20
2022-10-01T07:27:14.294Z,8.30
2022-10-01T07:29:41.852Z,7.80
2022-10-01T07:32:10.419Z,7.97
2022-10-01T07:34:42.475Z,8.07
2022-10-01T07:37:09.590Z,7.78
2022-10-01T07:39:36.920Z,7.50
2022-10-01T07:42:04.521Z,8.15
2022-10-01T07:44:31.335Z,7.75
2022-10-01T07:46:58.152Z,6.72
2022-10-01T07:49:27.647Z,7.43
2022-10-01T07:51:54.900Z,7.30
2022-10-01T07:54:25.266Z,7.15
2022-10-01T07:56:55.757Z,7.57
2022-10-01T07:59:23.266Z,7.80
2022-10-01T08:01:53.791Z,7.90
2022-10-01T08:04:40.391Z,7.32
2022-10-01T08:07:08.211Z,7.13
2022-10-01T08:09:35.367Z,7.95
2022-10-01T08:12:02.961Z,7.10
2022-10-01T08:14:30.403Z,7.35
2022-10-01T08:16:57.498Z,7.43
2022-10-01T08:19:25.446Z,8.00
2022-10-01T08:21:52.791Z,6.90
2022-10-01T08:24:20.153Z,6.85
2022-10-01T08:26:53.218Z,6.65
2022-10-01T08:29:20.478Z,7.05
2022-10-01T08:31:47.445Z,7.90
2022-10-01T08:34:14.759Z,6.78
2022-10-01T08:36:41.501Z,6.75
2022-10-01T08:39:08.494Z,6.47
2022-10-01T08:41:50.101Z,6.85
2022-10-01T08:44:25.193Z,6.68
2022-10-01T08:46:53.417Z,6.30
2022-10-01T08:49:27.950Z,6.82
2022-10-01T08:52:05.458Z,5.80
2022-10-01T08:54:39.327Z,6.20
2022-10-01T08:57:12.837Z,6.40
2022-10-01T08:59:43.596Z,6.40
2022-10-01T09:02:17.355Z,6.18
2022-10-01T09:04:44.315Z,6.32
2022-10-01T09:07:24.340Z,5.90
2022-10-01T09:10:29.245Z,6.20
2022-10-01T09:13:20.210Z,5.95
2022-10-01T09:15:59.949Z,6.25
2022-10-01T09:18:57.020Z,5.95
2022-10-01T09:21:33.716Z,6.47
2022-10-01T09:24:14.968Z,7.03
2022-10-01T09:26:50.606Z,6.47
2022-10-01T09:29:41.241Z,6.50
2022-10-01T09:32:12.705Z,6.65
2022-10-01T09:34:42.802Z,6.70
2022-10-01T09:37:30.226Z,6.10
2022-10-01T09:40:14.916Z,6.70
2022-10-01T09:42:42.883Z,6.40
2022-10-01T09:45:15.176Z,6.20
2022-10-01T09:47:45.933Z,6.10
2022-10-01T09:50:16.925Z,6.30
2022-10-01T09:52:46.750Z,7.32
2022-10-01T09:55:40.595Z,7.13
2022-10-01T09:58:18.392Z,6.70
2022-10-01T10:00:45.620Z,7.78
2022-10-01T10:03:23.518Z,6.75
2022-10-01T10:05:50.898Z,7.15
2022-10-01T10:08:31.098Z,6.55
2022-10-01T10:11:06.848Z,6.35
2022-10-01T10:13:39.104Z,6.70
2022-10-01T10:16:14.132Z,6.55
2022-10-01T10:18:41.365Z,6.75
2022-10-01T10:21:16.496Z,6.50
2022-10-01T10:23:55.045Z,6.30
2022-10-01T10:26:29.569Z,6.50
2022-10-01T10:28:56.434Z,6.50
2022-10-01T10:31:26.194Z,6.30
2022-10-01T10:34:16.158Z,5.45
2022-10-01T10:36:44.319Z,5.60
2022-10-01T10:39:23.198Z,5.82
2022-10-01T10:41:52.979Z,5.88
2022-10-01T10:44:22.775Z,5.60
2022-10-01T10:46:52.042Z,5.70
2022-10-01T10:49:31.336Z,5.60
2022-10-01T10:52:00.786Z,5.10
2022-10-01T10:54:41.691Z,5.20
2022-10-01T10:57:21.204Z,5.38
2022-10-01T11:00:20.350Z,5.90
2022-10-01T11:03:00.375Z,5.30
2022-10-01T11:05:32.044Z,5.10
2022-10-01T11:08:04.797Z,5.22
2022-10-01T11:11:09.198Z,5.68
2022-10-01T11:13:59.115Z,5.88
2022-10-01T11:17:00.023Z,6.72
2022-10-01T11:19:35.300Z,5.45
2022-10-01T11:22:23.107Z,5.60
2022-10-01T11:25:26.948Z,5.40
2022-10-01T11:27:53.877Z,5.75
2022-10-01T11:30:53.574Z,5.78
2022-10-01T11:33:35.163Z,5.30
2022-10-01T11:36:09.508Z,6.05
2022-10-01T11:38:47.738Z,5.65
2022-10-01T11:41:39.042Z,5.57
2022-10-01T11:44:08.231Z,5.53
2022-10-01T11:46:56.930Z,4.75
2022-10-01T11:49:57.888Z,4.60
2022-10-01T11:52:38.380Z,4.50
2022-10-01T11:55:55.057Z,4.70
2022-10-01T11:58:59.267Z,4.30
2022-10-01T12:01:39.214Z,4.20
2022-10-01T12:04:38.380Z,4.30
2022-10-01T12:07:37.848Z,4.50
2022-10-01T12:10:38.808Z,4.50
2022-10-01T12:13:10.905Z,4.35
2022-10-01T12:15:47.412Z,4.45
2022-10-01T12:18:47.874Z,4.40
2022-10-01T12:21:25.607Z,4.43
2022-10-01T12:24:02.014Z,4.18
2022-10-01T12:26:58.758Z,4.13
2022-10-01T12:29:45.512Z,4.20
2022-10-01T12:32:35.873Z,4.20
2022-10-01T12:35:35.890Z,4.18
2022-10-01T12:38:15.409Z,3.70
2022-10-01T12:41:03.898Z,3.95
2022-10-01T12:43:40.211Z,4.25
2022-10-01T12:46:38.553Z,3.80
2022-10-01T12:49:11.391Z,3.92
2022-10-01T12:51:52.970Z,4.13
2022-10-01T12:54:42.318Z,4.20
2022-10-01T12:57:35.048Z,4.10
2022-10-01T13:00:08.082Z,4.00
2022-10-01T13:03:08.315Z,4.05
2022-10-01T13:05:52.509Z,3.85
2022-10-01T13:08:36.591Z,4.30
2022-10-01T13:11:20.426Z,4.00
2022-10-01T13:13:51.910Z,4.00
2022-10-01T13:16:37.297Z,4.10
2022-10-01T13:19:24.877Z,3.80
2022-10-01T13:22:28.642Z,3.90
2022-10-01T13:25:15.155Z,3.55
2022-10-01T13:28:04.189Z,3.70
2022-10-01T13:31:01.374Z,3.95
2022-10-01T13:33:32.970Z,3.72
2022-10-01T13:36:02.174Z,3.53
2022-10-01T13:38:47.587Z,3.67
2022-10-01T13:41:20.270Z,3.40
2022-10-01T13:43:58.216Z,3.50
2022-10-01T13:46:47.376Z,3.30
2022-10-01T13:49:26.822Z,3.50
2022-10-01T13:51:54.654Z,3.42
2022-10-01T13:54:31.010Z,3.53
2022-10-01T13:57:08.485Z,3.50
2022-10-01T13:59:37.110Z,3.28
2022-10-01T14:02:28.714Z,3.42
2022-10-01T14:04:56.567Z,5.75
2022-10-01T14:07:28.100Z,3.60
2022-10-01T14:09:59.155Z,3.63
2022-10-01T14:12:44.279Z,3.58
2022-10-01T14:15:58.717Z,3.47
2022-10-01T14:18:38.994Z,3.47
2022-10-01T14:21:41.516Z,3.60
2022-10-01T14:24:38.675Z,3.33
2022-10-01T14:27:20.314Z,3.63
2022-10-01T14:30:05.834Z,3.40
2022-10-01T14:33:00.282Z,3.50
2022-10-01T14:35:40.385Z,3.70
2022-10-01T14:38:18.320Z,3.53
2022-10-01T14:40:47.923Z,3.55
2022-10-01T14:43:26.016Z,3.65
2022-10-01T14:45:56.970Z,3.50
2022-10-01T14:48:25.875Z,3.70
2022-10-01T14:50:55.381Z,3.80
2022-10-01T14:53:25.234Z,4.03
2022-10-01T14:55:55.650Z,3.80
2022-10-01T14:58:41.527Z,4.05
2022-10-01T15:01:23.809Z,3.90
2022-10-01T15:03:52.418Z,3.75
2022-10-01T15:06:27.605Z,3.70
2022-10-01T15:08:56.145Z,3.80
2022-10-01T15:11:25.798Z,4.10
2022-10-01T15:13:56.186Z,4.53
2022-10-01T15:16:25.593Z,3.90
2022-10-01T15:19:05.966Z,4.20
2022-10-01T15:21:55.715Z,3.72
2022-10-01T15:24:41.251Z,4.43
2022-10-01T15:27:13.619Z,4.22
2022-10-01T15:29:43.613Z,4.10
2022-10-01T15:32:14.811Z,4.40
2022-10-01T15:34:44.343Z,4.18
2022-10-01T15:37:28.556Z,4.45
2022-10-01T15:39:55.923Z,4.40
2022-10-01T15:42:35.942Z,4.97
2022-10-01T15:45:08.380Z,4.32
2022-10-01T15:47:37.339Z,4.70
2022-10-01T15:50:09.975Z,4.43
2022-10-01T15:52:54.111Z,4.45
2022-10-01T15:55:28.110Z,4.43
2022-10-01T15:58:14.099Z,4.97
2022-10-01T16:00:57.547Z,4.60
2022-10-01T16:04:00.804Z,4.40
2022-10-01T16:06:39.794Z,4.07
2022-10-01T16:09:18.351Z,4.53
2022-10-01T16:12:24.968Z,5.00
2022-10-01T16:15:03.854Z,4.32
2022-10-01T16:17:39.972Z,4.30
2022-10-01T16:20:15.785Z,4.35
2022-10-01T16:22:43.429Z,4.13
2022-10-01T16:25:25.089Z,4.32
2022-10-01T16:27:58.624Z,4.38
2022-10-01T16:30:29.754Z,4.25
2022-10-01T16:32:59.844Z,4.40
2022-10-01T16:35:28.438Z,4.35
2022-10-01T16:37:57.337Z,4.45
2022-10-01T16:40:29.048Z,4.20
2022-10-01T16:42:57.423Z,4.22
2022-10-01T16:45:26.735Z,4.35
2022-10-01T16:47:56.650Z,4.03
2022-10-01T16:50:24.176Z,5.75
2022-10-01T16:52:55.549Z,4.82
2022-10-01T16:55:29.758Z,4.60
2022-10-01T16:57:56.370Z,4.38
2022-10-01T17:00:26.171Z,4.30
2022-10-01T17:02:53.739Z,4.30
2022-10-01T17:05:23.088Z,4.80
2022-10-01T17:07:50.111Z,4.85
2022-10-01T17:10:19.042Z,4.80
2022-10-01T17:12:47.744Z,4.70
2022-10-01T17:15:22.367Z,5.30
2022-10-01T17:17:49.019Z,5.07
2022-10-01T17:20:15.803Z,4.68
2022-10-01T17:22:43.332Z,4.45
2022-10-01T17:25:19.111Z,5.20
2022-10-01T17:27:45.937Z,6.88
2022-10-01T17:30:13.279Z,8.20
2022-10-01T17:32:40.400Z,6.47
2022-10-01T17:35:07.964Z,8.13
2022-10-01T17:37:34.719Z,6.32
2022-10-01T17:40:01.531Z,5.90
2022-10-01T17:42:28.211Z,9.18
2022-10-01T17:44:54.890Z,8.00
2022-10-01T17:47:21.552Z,6.03
2022-10-01T17:49:48.252Z,4.97
2022-10-01T17:52:15.123Z,4.90
2022-10-01T17:54:41.762Z,5.25
2022-10-01T17:57:10.807Z,4.75
2022-10-01T17:59:38.141Z,4.88
2022-10-01T18:02:23.661Z,5.00
2022-10-01T18:04:53.972Z,4.97
2022-10-01T18:07:20.608Z,4.80
2022-10-01T18:09:47.239Z,5.22
2022-10-01T18:12:14.687Z,5.07
2022-10-01T18:14:41.446Z,5.20
2022-10-01T18:17:08.110Z,5.45
2022-10-01T18:22:21.662Z,5.43
2022-10-01T18:24:48.307Z,6.00
2022-10-01T18:27:15.154Z,5.10
2022-10-01T18:29:41.865Z,5.75
2022-10-01T18:32:17.031Z,4.70
2022-10-01T18:34:59.416Z,4.95
2022-10-01T18:37:45.583Z,5.20
2022-10-01T18:40:19.999Z,4.95
2022-10-01T18:43:08.460Z,5.10
2022-10-01T18:45:59.860Z,4.63
2022-10-01T18:48:57.732Z,4.80
2022-10-01T18:51:41.788Z,5.40
2022-10-01T18:54:20.585Z,4.65
2022-10-01T18:57:26.013Z,5.00
2022-10-01T18:59:52.631Z,5.28
2022-10-01T19:02:29.600Z,4.80
2022-10-01T19:05:26.827Z,4.75
2022-10-01T19:08:29.031Z,5.15
2022-10-01T19:11:01.589Z,5.90
2022-10-01T19:14:04.028Z,5.18
2022-10-01T19:17:09.346Z,4.70
2022-10-01T19:19:57.563Z,5.40
2022-10-01T19:22:37.287Z,6.15
2022-10-01T19:25:36.635Z,4.85
2022-10-01T19:28:27.648Z,4.50
2022-10-01T19:31:26.996Z,5.07
2022-10-01T19:34:04.086Z,4.97
2022-10-01T19:36:37.283Z,5.00
2022-10-01T19:39:10.970Z,4.95
2022-10-01T19:42:16.459Z,5.47
2022-10-01T19:44:54.226Z,5.00
2022-10-01T19:47:45.771Z,4.97
2022-10-01T19:50:28.797Z,4.47
2022-10-01T19:52:58.421Z,5.88
2022-10-01T19:55:29.774Z,5.97
2022-10-01T19:57:56.490Z,4.82
2022-10-01T20:00:24.097Z,4.95
2022-10-01T20:03:06.357Z,5.28
2022-10-01T20:05:49.400Z,5.13
2022-10-01T20:08:40.442Z,5.40
2022-10-01T20:11:18.699Z,5.82
2022-10-01T20:14:09.403Z,5.07
2022-10-01T20:16:47.060Z,4.80
2022-10-01T20:19:24.285Z,5.18
2022-10-01T20:22:07.508Z,4.88
2022-10-01T20:24:52.397Z,5.40
2022-10-01T20:27:49.332Z,5.13
2022-10-01T20:30:21.117Z,4.97
2022-10-01T20:33:08.722Z,5.40
2022-10-01T20:35:51.165Z,5.10
2022-10-01T20:38:30.417Z,4.90
2022-10-01T20:40:58.226Z,5.72
2022-10-01T20:43:35.511Z,5.30
2022-10-01T20:46:15.158Z,6.90
2022-10-01T20:48:52.285Z,5.60
2022-10-01T20:51:31.021Z,5.30
2022-10-01T20:54:05.599Z,5.55
2022-10-01T20:56:37.842Z,5.60
2022-10-01T20:59:13.526Z,5.47
2022-10-01T21:02:00.549Z,5.43
2022-10-01T21:04:34.026Z,5.05
2022-10-01T21:07:14.319Z,4.97
2022-10-01T21:09:50.150Z,5.53
2022-10-01T21:12:22.794Z,5.45
2022-10-01T21:14:56.893Z,5.88
2022-10-01T21:17:44.575Z,5.18
2022-10-01T21:20:20.261Z,4.68
2022-10-01T21:23:14.256Z,4.90
2022-10-01T21:26:08.777Z,5.65
2022-10-01T21:28:42.234Z,5.25
2022-10-01T21:31:08.902Z,5.32
2022-10-01T21:33:53.937Z,5.38
2022-10-01T21:36:37.129Z,5.80
2022-10-01T21:39:18.005Z,5.28
2022-10-01T21:41:58.456Z,5.50
2022-10-01T21:44:55.086Z,5.32
2022-10-01T21:47:48.714Z,5.47
2022-10-01T21:50:21.680Z,5.70
2022-10-01T21:53:09.576Z,5.70
2022-10-01T21:55:41.967Z,5.20
2022-10-01T21:58:25.907Z,5.18
2022-10-01T22:01:08.347Z,5.60
2022-10-01T22:03:44.982Z,5.55
2022-10-01T22:06:32.975Z,5.45
2022-10-01T22:09:25.543Z,5.57
2022-10-01T22:11:55.093Z,5.35
2022-10-01T22:14:22.631Z,5.60
2022-10-01T22:17:12.487Z,5.20
2022-10-01T22:19:42.849Z,5.53
2022-10-01T22:22:12.930Z,5.80
2022-10-01T22:24:46.964Z,5.78
2022-10-01T22:27:27.987Z,5.82
2022-10-01T22:30:05.195Z,5.55
2022-10-01T22:32:40.170Z,6.10
2022-10-01T22:35:18.301Z,5.78
2022-10-01T22:37:55.123Z,5.72
2022-10-01T22:40:28.918Z,5.78
2022-10-01T22:43:11.143Z,6.32
2022-10-01T22:45:59.566Z,5.35
2022-10-01T22:48:47.274Z,5.40
2022-10-01T22:51:32.549Z,5.50
2022-10-01T22:54:25.534Z,5.90
2022-10-01T22:57:20.822Z,5.60
2022-10-01T23:00:07.511Z,5.47
2022-10-01T23:02:46.673Z,6.60
2022-10-01T23:05:40.146Z,5.53
2022-10-01T23:08:34.291Z,6.07
2022-10-01T23:11:22.698Z,6.03
2022-10-01T23:13:59.041Z,6.30
2022-10-01T23:16:53.333Z,5.80
2022-10-01T23:19:44.902Z,6.10
2022-10-01T23:22:11.538Z,6.03
2022-10-01T23:24:53.805Z,5.70
2022-10-01T23:27:26.643Z,5.63
2022-10-01T23:30:17.055Z,5.47
2022-10-01T23:33:25.133Z,5.70
2022-10-01T23:36:13.476Z,5.90
2022-10-01T23:39:17.803Z,6.75
2022-10-01T23:41:55.163Z,6.10
2022-10-01T23:44:34.548Z,6.35
2022-10-01T23:47:06.561Z,6.22
2022-10-01T23:49:37.018Z,7.18
2022-10-01T23:52:15.364Z,5.80
2022-10-01T23:54:50.377Z,6.50
2022-10-01T23:57:29.394Z,8.15
